Midnight Dream — 3EKF5 — position and weather

sailwx.info

Track history (hours):
 
Tides and Currents Weather Stations Pressure Air Temp Water Temp Dewpoint Dewpoint Depression Visibility Wind Speed Wind Dir Waves Ship Positions

Midnight Dream

Last reported at 2016-Dec-08 20:24 UTC. Time now 2016-Dec-09 09:45 UTC.
Position N 18°25' W 064°36'.

Length 90 m; draft 4.5 m.

Type: Cargo ship. MMSI: 372708000.

Date/timePositionNaut miles runAvg speedWind from/ knotsBaromVisibWave heightAir tempDewpointWater temp
2016-Dec-08 20:24N 18°25' W 064°36'0 0.5
2016-Dec-08 19:33N 18°24' W 064°36'0 0.0
2016-Dec-08 17:25N 18°24' W 064°36'0 0.0
2016-Dec-08 16:31N 18°24' W 064°36'0 0.0
2016-Dec-08 15:25N 18°24' W 064°36'0 0.0
2016-Dec-08 14:31N 18°24' W 064°36'0 0.0
2016-Dec-08 12:24N 18°24' W 064°36'0 0.0
2016-Dec-08 11:24N 18°24' W 064°36'0 0.0
2016-Dec-08 10:30N 18°24' W 064°36'0 0.0
2016-Dec-08 09:18N 18°24' W 064°36'0 0.0
2016-Dec-08 08:30N 18°24' W 064°36'0 0.0
2016-Dec-08 07:30N 18°24' W 064°36'0 0.0
2016-Dec-08 06:30N 18°24' W 064°36'0 0.0
2016-Dec-08 05:30N 18°24' W 064°36'0 0.0
2016-Dec-08 04:30N 18°24' W 064°36'0 0.0
2016-Dec-08 03:30N 18°24' W 064°36'0 0.0
2016-Dec-08 02:30N 18°24' W 064°36'0 0.0
2016-Dec-08 01:30N 18°24' W 064°36'0 0.0
2016-Dec-08 00:30N 18°24' W 064°36'0 0.0
2016-Dec-07 23:30N 18°24' W 064°36'0 0.0
2016-Dec-07 22:30N 18°24' W 064°36'0 0.0
2016-Dec-07 21:24N 18°24' W 064°36'0 0.0
2016-Dec-07 20:12N 18°24' W 064°36'0 0.0
2016-Dec-07 19:30N 18°24' W 064°36'0 0.0
2016-Dec-07 18:30N 18°24' W 064°36'0 0.0
2016-Dec-07 17:18N 18°24' W 064°36'0 0.1
2016-Dec-07 16:24N 18°24' W 064°36'2 2.6
2016-Dec-07 15:34N 18°24' W 064°34'92 9.9
2016-Dec-07 06:16N 17°42' W 063°08'3110.2
2016-Dec-07 03:12N 17°29' W 062°38'6 9.8
2016-Dec-07 02:33N 17°26' W 062°32'10 9.8
2016-Dec-07 01:33N 17°22' W 062°23'1010.0
2016-Dec-07 00:34N 17°18' W 062°14'1010.0
2016-Dec-06 23:34N 17°13' W 062°04'10 9.8
2016-Dec-06 22:34N 17°09' W 061°55'4 3.8
2016-Dec-06 21:31N 17°07' W 061°51'0 0.0
2016-Dec-06 20:31N 17°07' W 061°51'0 0.0
2016-Dec-06 18:31N 17°07' W 061°51'0 0.0
2016-Dec-06 17:25N 17°07' W 061°51'2 2.2
2016-Dec-06 16:32N 17°08' W 061°53'0 0.0
2016-Dec-06 15:31N 17°08' W 061°53'0 0.0
2016-Dec-06 14:31N 17°08' W 061°53'0 0.0
2016-Dec-06 13:31N 17°08' W 061°53'0 0.0
2016-Dec-06 12:31N 17°08' W 061°53'0 0.0
2016-Dec-06 11:31N 17°08' W 061°53'0 0.0
2016-Dec-06 10:31N 17°08' W 061°53'0 0.0
2016-Dec-06 09:31N 17°08' W 061°53'0 0.0
2016-Dec-06 08:31N 17°08' W 061°53'0 0.0
2016-Dec-06 07:31N 17°08' W 061°53'2 1.8
2016-Dec-06 06:33N 17°08' W 061°55'1010.1
2016-Dec-06 05:33N 17°07' W 062°05'71 6.9
2016-Dec-05 19:09N 17°39' W 063°12'1010.7
2016-Dec-05 18:13N 17°45' W 063°21'4410.8
2016-Dec-05 14:08N 18°01' W 064°04'4210.7
2016-Dec-05 10:13N 18°14' W 064°46'710.6
2016-Dec-05 09:33N 18°17' W 064°52'2 0.1
2016-Dec-04 10:18N 18°18' W 064°55'810.6
2016-Dec-04 09:31N 18°17' W 064°46'9 9.7
2016-Dec-04 08:33N 18°22' W 064°37'  
2016-Dec-01 10:19N 18°25' W 064°36'1 0.4
2016-Dec-01 08:31N 18°24' W 064°36'0 0.0
2016-Dec-01 07:28N 18°24' W 064°36'0 0.0
2016-Dec-01 06:30N 18°24' W 064°36'0 0.0
2016-Dec-01 05:21N 18°24' W 064°36'0 0.0
2016-Dec-01 04:18N 18°24' W 064°35'0 0.0
2016-Dec-01 02:21N 18°24' W 064°36'0 0.0
2016-Nov-30 20:32N 18°25' W 064°35'7510.6
2016-Nov-30 13:26N 17°50' W 063°25'1110.3
2016-Nov-30 12:22N 17°45' W 063°15'910.4
2016-Nov-30 11:30N 17°41' W 063°06'3310.8
2016-Nov-30 08:27N 17°27' W 062°34'910.6
2016-Nov-30 07:33N 17°24' W 062°25'1110.6
2016-Nov-30 06:33N 17°19' W 062°16'1010.3
2016-Nov-30 05:33N 17°14' W 062°06'1010.2
2016-Nov-30 04:33N 17°10' W 061°56'5 5.2
2016-Nov-30 03:32N 17°07' W 061°51'0 0.0
2016-Nov-30 02:32N 17°07' W 061°51'0 0.0
2016-Nov-30 01:32N 17°07' W 061°51'0 0.0
2016-Nov-30 00:29N 17°07' W 061°51'0 0.0
2016-Nov-29 23:32N 17°07' W 061°51'6 6.0
2016-Nov-29 22:33N 17°07' W 061°57'1312.7
2016-Nov-29 21:33N 17°06' W 062°11'71 7.9
2016-Nov-29 12:27N 17°45' W 063°14'1111.6
2016-Nov-29 11:31N 17°50' W 063°24'8211.7
2016-Nov-29 04:33N 18°14' W 064°46'5 0.8
2016-Nov-28 22:33N 18°17' W 064°50'1111.1
2016-Nov-28 21:32N 18°20' W 064°38'  
Track history (hours):
 
Tides and Currents Weather Stations Pressure Air Temp Water Temp Dewpoint Dewpoint Depression Visibility Wind Speed Wind Dir Waves Ship Positions

Midnight Dream

Last reported at 2016-Dec-08 20:24 UTC. Time now 2016-Dec-09 09:45 UTC.
Position N 18°25' W 064°36'.

Length 90 m; draft 4.5 m.

Type: Cargo ship. MMSI: 372708000.

Date/timePositionNaut miles runAvg speedWind from/ knotsBaromVisibWave heightAir tempDewpointWater temp
2016-Dec-08 20:24N 18°25' W 064°36'0 0.5
2016-Dec-08 19:33N 18°24' W 064°36'0 0.0
2016-Dec-08 17:25N 18°24' W 064°36'0 0.0
2016-Dec-08 16:31N 18°24' W 064°36'0 0.0
2016-Dec-08 15:25N 18°24' W 064°36'0 0.0
2016-Dec-08 14:31N 18°24' W 064°36'0 0.0
2016-Dec-08 12:24N 18°24' W 064°36'0 0.0
2016-Dec-08 11:24N 18°24' W 064°36'0 0.0
2016-Dec-08 10:30N 18°24' W 064°36'0 0.0
2016-Dec-08 09:18N 18°24' W 064°36'0 0.0
2016-Dec-08 08:30N 18°24' W 064°36'0 0.0
2016-Dec-08 07:30N 18°24' W 064°36'0 0.0
2016-Dec-08 06:30N 18°24' W 064°36'0 0.0
2016-Dec-08 05:30N 18°24' W 064°36'0 0.0
2016-Dec-08 04:30N 18°24' W 064°36'0 0.0
2016-Dec-08 03:30N 18°24' W 064°36'0 0.0
2016-Dec-08 02:30N 18°24' W 064°36'0 0.0
2016-Dec-08 01:30N 18°24' W 064°36'0 0.0
2016-Dec-08 00:30N 18°24' W 064°36'0 0.0
2016-Dec-07 23:30N 18°24' W 064°36'0 0.0
2016-Dec-07 22:30N 18°24' W 064°36'0 0.0
2016-Dec-07 21:24N 18°24' W 064°36'0 0.0
2016-Dec-07 20:12N 18°24' W 064°36'0 0.0
2016-Dec-07 19:30N 18°24' W 064°36'0 0.0
2016-Dec-07 18:30N 18°24' W 064°36'0 0.0
2016-Dec-07 17:18N 18°24' W 064°36'0 0.1
2016-Dec-07 16:24N 18°24' W 064°36'2 2.6
2016-Dec-07 15:34N 18°24' W 064°34'92 9.9
2016-Dec-07 06:16N 17°42' W 063°08'3110.2
2016-Dec-07 03:12N 17°29' W 062°38'6 9.8
2016-Dec-07 02:33N 17°26' W 062°32'10 9.8
2016-Dec-07 01:33N 17°22' W 062°23'1010.0
2016-Dec-07 00:34N 17°18' W 062°14'1010.0
2016-Dec-06 23:34N 17°13' W 062°04'10 9.8
2016-Dec-06 22:34N 17°09' W 061°55'4 3.8
2016-Dec-06 21:31N 17°07' W 061°51'0 0.0
2016-Dec-06 20:31N 17°07' W 061°51'0 0.0
2016-Dec-06 18:31N 17°07' W 061°51'0 0.0
2016-Dec-06 17:25N 17°07' W 061°51'2 2.2
2016-Dec-06 16:32N 17°08' W 061°53'0 0.0
2016-Dec-06 15:31N 17°08' W 061°53'0 0.0
2016-Dec-06 14:31N 17°08' W 061°53'0 0.0
2016-Dec-06 13:31N 17°08' W 061°53'0 0.0
2016-Dec-06 12:31N 17°08' W 061°53'0 0.0
2016-Dec-06 11:31N 17°08' W 061°53'0 0.0
2016-Dec-06 10:31N 17°08' W 061°53'0 0.0
2016-Dec-06 09:31N 17°08' W 061°53'0 0.0
2016-Dec-06 08:31N 17°08' W 061°53'0 0.0
2016-Dec-06 07:31N 17°08' W 061°53'2 1.8
2016-Dec-06 06:33N 17°08' W 061°55'1010.1
2016-Dec-06 05:33N 17°07' W 062°05'71 6.9
2016-Dec-05 19:09N 17°39' W 063°12'1010.7
2016-Dec-05 18:13N 17°45' W 063°21'4410.8
2016-Dec-05 14:08N 18°01' W 064°04'4210.7
2016-Dec-05 10:13N 18°14' W 064°46'710.6
2016-Dec-05 09:33N 18°17' W 064°52'2 0.1
2016-Dec-04 10:18N 18°18' W 064°55'810.6
2016-Dec-04 09:31N 18°17' W 064°46'9 9.7
2016-Dec-04 08:33N 18°22' W 064°37'  
2016-Dec-01 10:19N 18°25' W 064°36'1 0.4
2016-Dec-01 08:31N 18°24' W 064°36'0 0.0
2016-Dec-01 07:28N 18°24' W 064°36'0 0.0
2016-Dec-01 06:30N 18°24' W 064°36'0 0.0
2016-Dec-01 05:21N 18°24' W 064°36'0 0.0
2016-Dec-01 04:18N 18°24' W 064°35'0 0.0
2016-Dec-01 02:21N 18°24' W 064°36'0 0.0
2016-Nov-30 20:32N 18°25' W 064°35'7510.6
2016-Nov-30 13:26N 17°50' W 063°25'1110.3
2016-Nov-30 12:22N 17°45' W 063°15'910.4
2016-Nov-30 11:30N 17°41' W 063°06'3310.8
2016-Nov-30 08:27N 17°27' W 062°34'910.6
2016-Nov-30 07:33N 17°24' W 062°25'1110.6
2016-Nov-30 06:33N 17°19' W 062°16'1010.3
2016-Nov-30 05:33N 17°14' W 062°06'1010.2
2016-Nov-30 04:33N 17°10' W 061°56'5 5.2
2016-Nov-30 03:32N 17°07' W 061°51'0 0.0
2016-Nov-30 02:32N 17°07' W 061°51'0 0.0
2016-Nov-30 01:32N 17°07' W 061°51'0 0.0
2016-Nov-30 00:29N 17°07' W 061°51'0 0.0
2016-Nov-29 23:32N 17°07' W 061°51'6 6.0
2016-Nov-29 22:33N 17°07' W 061°57'1312.7
2016-Nov-29 21:33N 17°06' W 062°11'71 7.9
2016-Nov-29 12:27N 17°45' W 063°14'1111.6
2016-Nov-29 11:31N 17°50' W 063°24'8211.7
2016-Nov-29 04:33N 18°14' W 064°46'5 0.8
2016-Nov-28 22:33N 18°17' W 064°50'1111.1
2016-Nov-28 21:32N 18°20' W 064°38'  

Dump ship's entire track history